sensor_id;sensor_type;location;lat;lon;timestamp;P1;durP1;ratioP1;P2;durP2;ratioP2
55216;SDS011;41086;46.736;15.666;2022-09-03T00:02:21;8.32;;;6.00;;
55216;SDS011;41086;46.736;15.666;2022-09-03T00:05:02;12.68;;;5.30;;
55216;SDS011;41086;46.736;15.666;2022-09-03T00:10:40;8.25;;;5.85;;
55216;SDS011;41086;46.736;15.666;2022-09-03T00:13:17;11.20;;;5.80;;
55216;SDS011;41086;46.736;15.666;2022-09-03T00:15:49;12.02;;;6.20;;
55216;SDS011;41086;46.736;15.666;2022-09-03T00:18:20;10.15;;;6.72;;
55216;SDS011;41086;46.736;15.666;2022-09-03T00:20:50;9.77;;;7.13;;
55216;SDS011;41086;46.736;15.666;2022-09-03T00:23:21;13.65;;;8.27;;
55216;SDS011;41086;46.736;15.666;2022-09-03T00:26:15;9.90;;;7.35;;
55216;SDS011;41086;46.736;15.666;2022-09-03T00:31:48;12.60;;;7.10;;
55216;SDS011;41086;46.736;15.666;2022-09-03T00:34:28;8.25;;;7.35;;
55216;SDS011;41086;46.736;15.666;2022-09-03T00:36:57;10.55;;;6.88;;
55216;SDS011;41086;46.736;15.666;2022-09-03T00:39:25;10.05;;;5.93;;
55216;SDS011;41086;46.736;15.666;2022-09-03T00:44:53;12.38;;;6.18;;
55216;SDS011;41086;46.736;15.666;2022-09-03T00:58:34;10.13;;;6.40;;
55216;SDS011;41086;46.736;15.666;2022-09-03T01:01:08;10.68;;;7.10;;
55216;SDS011;41086;46.736;15.666;2022-09-03T01:09:17;10.35;;;6.45;;
55216;SDS011;41086;46.736;15.666;2022-09-03T01:15:07;19.95;;;6.00;;
55216;SDS011;41086;46.736;15.666;2022-09-03T01:25:47;11.23;;;6.90;;
55216;SDS011;41086;46.736;15.666;2022-09-03T01:31:14;15.13;;;6.10;;
55216;SDS011;41086;46.736;15.666;2022-09-03T01:34:04;7.68;;;6.15;;
55216;SDS011;41086;46.736;15.666;2022-09-03T01:39:40;11.73;;;6.30;;
55216;SDS011;41086;46.736;15.666;2022-09-03T01:53:08;9.65;;;5.18;;
55216;SDS011;41086;46.736;15.666;2022-09-03T01:55:54;10.93;;;6.78;;
55216;SDS011;41086;46.736;15.666;2022-09-03T01:58:39;7.68;;;5.88;;
55216;SDS011;41086;46.736;15.666;2022-09-03T02:01:14;8.93;;;5.50;;
55216;SDS011;41086;46.736;15.666;2022-09-03T02:03:47;10.77;;;6.35;;
55216;SDS011;41086;46.736;15.666;2022-09-03T02:06:14;8.95;;;6.15;;
55216;SDS011;41086;46.736;15.666;2022-09-03T02:08:41;11.55;;;5.97;;
55216;SDS011;41086;46.736;15.666;2022-09-03T02:13:43;8.15;;;5.63;;
55216;SDS011;41086;46.736;15.666;2022-09-03T02:16:14;12.60;;;6.60;;
55216;SDS011;41086;46.736;15.666;2022-09-03T02:18:47;9.57;;;6.40;;
55216;SDS011;41086;46.736;15.666;2022-09-03T02:21:17;10.40;;;6.00;;
55216;SDS011;41086;46.736;15.666;2022-09-03T02:23:47;10.52;;;7.40;;
55216;SDS011;41086;46.736;15.666;2022-09-03T02:26:15;10.95;;;6.95;;
55216;SDS011;41086;46.736;15.666;2022-09-03T02:28:46;10.90;;;7.22;;
55216;SDS011;41086;46.736;15.666;2022-09-03T02:31:15;10.48;;;6.53;;
55216;SDS011;41086;46.736;15.666;2022-09-03T02:33:43;8.77;;;5.95;;
55216;SDS011;41086;46.736;15.666;2022-09-03T02:36:14;9.10;;;6.20;;
55216;SDS011;41086;46.736;15.666;2022-09-03T02:38:44;6.97;;;5.90;;
55216;SDS011;41086;46.736;15.666;2022-09-03T02:41:11;11.07;;;6.07;;
55216;SDS011;41086;46.736;15.666;2022-09-03T02:43:41;7.82;;;5.45;;
55216;SDS011;41086;46.736;15.666;2022-09-03T02:46:21;9.43;;;5.55;;
55216;SDS011;41086;46.736;15.666;2022-09-03T02:48:55;8.45;;;5.57;;
55216;SDS011;41086;46.736;15.666;2022-09-03T02:51:22;8.38;;;5.90;;
55216;SDS011;41086;46.736;15.666;2022-09-03T02:53:48;9.35;;;5.93;;
55216;SDS011;41086;46.736;15.666;2022-09-03T02:56:16;7.60;;;5.28;;
55216;SDS011;41086;46.736;15.666;2022-09-03T02:58:43;9.50;;;6.20;;
55216;SDS011;41086;46.736;15.666;2022-09-03T03:01:10;18.50;;;8.18;;
55216;SDS011;41086;46.736;15.666;2022-09-03T03:03:49;8.27;;;5.80;;
55216;SDS011;41086;46.736;15.666;2022-09-03T03:06:16;11.15;;;6.20;;
55216;SDS011;41086;46.736;15.666;2022-09-03T03:08:47;11.40;;;6.82;;
55216;SDS011;41086;46.736;15.666;2022-09-03T03:11:15;10.45;;;6.90;;
55216;SDS011;41086;46.736;15.666;2022-09-03T03:13:44;7.93;;;6.20;;
55216;SDS011;41086;46.736;15.666;2022-09-03T03:16:12;8.77;;;6.38;;
55216;SDS011;41086;46.736;15.666;2022-09-03T03:18:40;12.18;;;5.13;;
55216;SDS011;41086;46.736;15.666;2022-09-03T03:21:11;10.85;;;6.13;;
55216;SDS011;41086;46.736;15.666;2022-09-03T03:23:42;9.73;;;5.93;;
55216;SDS011;41086;46.736;15.666;2022-09-03T03:26:11;10.50;;;6.50;;
55216;SDS011;41086;46.736;15.666;2022-09-03T03:28:39;12.32;;;6.95;;
55216;SDS011;41086;46.736;15.666;2022-09-03T03:31:18;9.25;;;5.97;;
55216;SDS011;41086;46.736;15.666;2022-09-03T03:33:54;9.45;;;5.90;;
55216;SDS011;41086;46.736;15.666;2022-09-03T03:36:26;6.65;;;5.35;;
55216;SDS011;41086;46.736;15.666;2022-09-03T03:38:56;10.07;;;6.18;;
55216;SDS011;41086;46.736;15.666;2022-09-03T03:41:26;12.00;;;6.90;;
55216;SDS011;41086;46.736;15.666;2022-09-03T03:43:59;11.93;;;6.75;;
55216;SDS011;41086;46.736;15.666;2022-09-03T03:46:28;9.10;;;6.63;;
55216;SDS011;41086;46.736;15.666;2022-09-03T03:48:58;14.98;;;7.13;;
55216;SDS011;41086;46.736;15.666;2022-09-03T03:51:25;7.95;;;6.32;;
55216;SDS011;41086;46.736;15.666;2022-09-03T03:53:53;7.35;;;5.43;;
55216;SDS011;41086;46.736;15.666;2022-09-03T03:56:22;9.80;;;5.72;;
55216;SDS011;41086;46.736;15.666;2022-09-03T03:58:50;6.45;;;4.97;;
55216;SDS011;41086;46.736;15.666;2022-09-03T04:01:18;9.07;;;6.22;;
55216;SDS011;41086;46.736;15.666;2022-09-03T04:03:46;8.18;;;6.32;;
55216;SDS011;41086;46.736;15.666;2022-09-03T04:06:14;8.82;;;6.43;;
55216;SDS011;41086;46.736;15.666;2022-09-03T04:08:43;11.05;;;6.90;;
55216;SDS011;41086;46.736;15.666;2022-09-03T04:11:15;8.07;;;5.57;;
55216;SDS011;41086;46.736;15.666;2022-09-03T04:13:44;9.20;;;5.40;;
55216;SDS011;41086;46.736;15.666;2022-09-03T04:16:13;8.75;;;5.57;;
55216;SDS011;41086;46.736;15.666;2022-09-03T04:18:44;10.02;;;5.88;;
55216;SDS011;41086;46.736;15.666;2022-09-03T04:21:13;9.40;;;6.03;;
55216;SDS011;41086;46.736;15.666;2022-09-03T04:23:42;8.48;;;5.50;;
55216;SDS011;41086;46.736;15.666;2022-09-03T04:26:12;12.60;;;5.97;;
55216;SDS011;41086;46.736;15.666;2022-09-03T04:28:40;7.53;;;6.18;;
55216;SDS011;41086;46.736;15.666;2022-09-03T04:31:09;13.10;;;6.50;;
55216;SDS011;41086;46.736;15.666;2022-09-03T04:33:38;16.10;;;7.38;;
55216;SDS011;41086;46.736;15.666;2022-09-03T04:36:07;13.65;;;8.15;;
55216;SDS011;41086;46.736;15.666;2022-09-03T04:38:39;37.35;;;8.77;;
55216;SDS011;41086;46.736;15.666;2022-09-03T04:41:08;41.35;;;8.35;;
55216;SDS011;41086;46.736;15.666;2022-09-03T04:43:36;88.18;;;13.65;;
55216;SDS011;41086;46.736;15.666;2022-09-03T04:46:05;65.75;;;14.43;;
55216;SDS011;41086;46.736;15.666;2022-09-03T04:48:43;108.60;;;12.30;;
55216;SDS011;41086;46.736;15.666;2022-09-03T04:51:13;169.65;;;23.13;;
55216;SDS011;41086;46.736;15.666;2022-09-03T04:53:43;29.83;;;9.48;;
55216;SDS011;41086;46.736;15.666;2022-09-03T04:56:19;18.52;;;10.68;;
55216;SDS011;41086;46.736;15.666;2022-09-03T04:58:52;22.50;;;11.50;;
55216;SDS011;41086;46.736;15.666;2022-09-03T05:01:27;25.27;;;13.75;;
55216;SDS011;41086;46.736;15.666;2022-09-03T05:03:57;63.53;;;14.25;;
55216;SDS011;41086;46.736;15.666;2022-09-03T05:06:25;31.58;;;13.13;;
55216;SDS011;41086;46.736;15.666;2022-09-03T05:08:53;34.15;;;13.70;;
55216;SDS011;41086;46.736;15.666;2022-09-03T05:11:21;30.67;;;11.38;;
55216;SDS011;41086;46.736;15.666;2022-09-03T05:13:49;29.73;;;12.50;;
55216;SDS011;41086;46.736;15.666;2022-09-03T05:16:19;27.65;;;12.80;;
55216;SDS011;41086;46.736;15.666;2022-09-03T05:18:50;112.05;;;18.33;;
55216;SDS011;41086;46.736;15.666;2022-09-03T05:21:18;118.30;;;17.65;;
55216;SDS011;41086;46.736;15.666;2022-09-03T05:23:47;87.20;;;15.35;;
55216;SDS011;41086;46.736;15.666;2022-09-03T05:26:17;139.50;;;17.30;;
55216;SDS011;41086;46.736;15.666;2022-09-03T05:28:46;79.55;;;15.20;;
55216;SDS011;41086;46.736;15.666;2022-09-03T05:31:17;88.47;;;16.75;;
55216;SDS011;41086;46.736;15.666;2022-09-03T05:33:46;97.13;;;17.42;;
55216;SDS011;41086;46.736;15.666;2022-09-03T05:36:18;99.18;;;16.05;;
55216;SDS011;41086;46.736;15.666;2022-09-03T05:38:47;101.82;;;17.48;;
55216;SDS011;41086;46.736;15.666;2022-09-03T05:41:15;92.63;;;17.00;;
55216;SDS011;41086;46.736;15.666;2022-09-03T05:43:46;101.55;;;20.40;;
55216;SDS011;41086;46.736;15.666;2022-09-03T05:46:17;119.43;;;18.30;;
55216;SDS011;41086;46.736;15.666;2022-09-03T05:48:44;104.90;;;16.27;;
55216;SDS011;41086;46.736;15.666;2022-09-03T05:51:15;58.65;;;14.32;;
55216;SDS011;41086;46.736;15.666;2022-09-03T05:53:44;93.35;;;14.27;;
55216;SDS011;41086;46.736;15.666;2022-09-03T05:56:15;88.22;;;14.63;;
55216;SDS011;41086;46.736;15.666;2022-09-03T05:58:45;132.25;;;15.55;;
55216;SDS011;41086;46.736;15.666;2022-09-03T06:01:14;51.17;;;13.73;;
55216;SDS011;41086;46.736;15.666;2022-09-03T06:03:53;55.08;;;12.68;;
55216;SDS011;41086;46.736;15.666;2022-09-03T06:06:20;104.30;;;26.08;;
55216;SDS011;41086;46.736;15.666;2022-09-03T06:08:54;156.43;;;22.23;;
55216;SDS011;41086;46.736;15.666;2022-09-03T06:11:24;49.58;;;13.75;;
55216;SDS011;41086;46.736;15.666;2022-09-03T06:13:54;55.58;;;14.40;;
55216;SDS011;41086;46.736;15.666;2022-09-03T06:16:23;49.80;;;15.63;;
55216;SDS011;41086;46.736;15.666;2022-09-03T06:19:00;37.70;;;13.15;;
55216;SDS011;41086;46.736;15.666;2022-09-03T06:21:28;36.13;;;13.27;;
55216;SDS011;41086;46.736;15.666;2022-09-03T06:23:55;106.15;;;19.35;;
55216;SDS011;41086;46.736;15.666;2022-09-03T06:26:25;25.13;;;14.52;;
55216;SDS011;41086;46.736;15.666;2022-09-03T06:28:56;50.90;;;14.98;;
55216;SDS011;41086;46.736;15.666;2022-09-03T06:31:24;19.77;;;13.60;;
55216;SDS011;41086;46.736;15.666;2022-09-03T06:33:52;26.48;;;14.10;;
55216;SDS011;41086;46.736;15.666;2022-09-03T06:36:20;25.63;;;14.40;;
55216;SDS011;41086;46.736;15.666;2022-09-03T06:38:52;21.75;;;14.63;;
55216;SDS011;41086;46.736;15.666;2022-09-03T06:41:22;18.25;;;13.43;;
55216;SDS011;41086;46.736;15.666;2022-09-03T06:43:59;17.83;;;12.45;;
55216;SDS011;41086;46.736;15.666;2022-09-03T06:46:33;22.35;;;13.05;;
55216;SDS011;41086;46.736;15.666;2022-09-03T06:49:03;21.40;;;13.02;;
55216;SDS011;41086;46.736;15.666;2022-09-03T06:51:30;15.43;;;10.52;;
55216;SDS011;41086;46.736;15.666;2022-09-03T06:53:59;22.85;;;12.32;;
55216;SDS011;41086;46.736;15.666;2022-09-03T06:56:37;15.90;;;12.70;;
55216;SDS011;41086;46.736;15.666;2022-09-03T06:59:08;13.90;;;10.73;;
55216;SDS011;41086;46.736;15.666;2022-09-03T07:01:39;16.05;;;11.98;;
55216;SDS011;41086;46.736;15.666;2022-09-03T07:04:11;13.70;;;11.63;;
55216;SDS011;41086;46.736;15.666;2022-09-03T07:06:41;14.77;;;11.43;;
55216;SDS011;41086;46.736;15.666;2022-09-03T07:09:11;14.32;;;9.85;;
55216;SDS011;41086;46.736;15.666;2022-09-03T07:11:41;9.10;;;8.00;;
55216;SDS011;41086;46.736;15.666;2022-09-03T07:14:16;10.40;;;8.48;;
55216;SDS011;41086;46.736;15.666;2022-09-03T07:16:44;10.65;;;8.45;;
55216;SDS011;41086;46.736;15.666;2022-09-03T07:19:12;10.93;;;9.13;;
55216;SDS011;41086;46.736;15.666;2022-09-03T07:21:40;10.15;;;8.52;;
55216;SDS011;41086;46.736;15.666;2022-09-03T07:24:14;9.82;;;7.75;;
55216;SDS011;41086;46.736;15.666;2022-09-03T07:26:41;9.20;;;6.82;;
55216;SDS011;41086;46.736;15.666;2022-09-03T07:29:12;8.45;;;7.15;;
55216;SDS011;41086;46.736;15.666;2022-09-03T07:31:42;12.77;;;6.97;;
55216;SDS011;41086;46.736;15.666;2022-09-03T07:34:10;8.38;;;6.50;;
55216;SDS011;41086;46.736;15.666;2022-09-03T07:36:42;8.55;;;6.43;;
55216;SDS011;41086;46.736;15.666;2022-09-03T07:39:15;9.18;;;6.80;;
55216;SDS011;41086;46.736;15.666;2022-09-03T07:41:44;7.05;;;5.55;;
55216;SDS011;41086;46.736;15.666;2022-09-03T07:44:13;7.75;;;6.38;;
55216;SDS011;41086;46.736;15.666;2022-09-03T07:46:41;7.53;;;6.18;;
55216;SDS011;41086;46.736;15.666;2022-09-03T07:49:10;15.68;;;5.88;;
55216;SDS011;41086;46.736;15.666;2022-09-03T07:51:38;7.68;;;5.45;;
55216;SDS011;41086;46.736;15.666;2022-09-03T07:54:08;9.50;;;5.25;;
55216;SDS011;41086;46.736;15.666;2022-09-03T07:56:37;13.63;;;6.05;;
55216;SDS011;41086;46.736;15.666;2022-09-03T07:59:05;6.93;;;5.53;;
55216;SDS011;41086;46.736;15.666;2022-09-03T08:04:00;14.80;;;5.68;;
55216;SDS011;41086;46.736;15.666;2022-09-03T08:06:28;11.13;;;5.18;;
55216;SDS011;41086;46.736;15.666;2022-09-03T08:08:57;7.82;;;5.65;;
55216;SDS011;41086;46.736;15.666;2022-09-03T08:11:30;7.75;;;5.43;;
55216;SDS011;41086;46.736;15.666;2022-09-03T08:14:02;7.80;;;5.22;;
55216;SDS011;41086;46.736;15.666;2022-09-03T08:16:35;15.63;;;4.85;;
55216;SDS011;41086;46.736;15.666;2022-09-03T08:19:03;12.82;;;5.35;;
55216;SDS011;41086;46.736;15.666;2022-09-03T08:21:34;9.32;;;6.13;;
55216;SDS011;41086;46.736;15.666;2022-09-03T08:24:01;6.57;;;5.25;;
55216;SDS011;41086;46.736;15.666;2022-09-03T08:26:32;7.70;;;5.47;;
55216;SDS011;41086;46.736;15.666;2022-09-03T08:29:01;6.45;;;5.15;;
55216;SDS011;41086;46.736;15.666;2022-09-03T08:31:30;6.28;;;4.60;;
55216;SDS011;41086;46.736;15.666;2022-09-03T08:33:58;9.13;;;5.00;;
55216;SDS011;41086;46.736;15.666;2022-09-03T08:36:29;4.97;;;4.32;;
55216;SDS011;41086;46.736;15.666;2022-09-03T08:38:57;5.22;;;3.58;;
55216;SDS011;41086;46.736;15.666;2022-09-03T08:44:09;5.55;;;3.58;;
55216;SDS011;41086;46.736;15.666;2022-09-03T08:46:43;7.78;;;3.97;;
55216;SDS011;41086;46.736;15.666;2022-09-03T08:49:14;5.25;;;4.03;;
55216;SDS011;41086;46.736;15.666;2022-09-03T08:51:50;8.77;;;4.23;;
55216;SDS011;41086;46.736;15.666;2022-09-03T08:54:20;4.32;;;3.38;;
55216;SDS011;41086;46.736;15.666;2022-09-03T08:56:52;6.68;;;3.72;;
55216;SDS011;41086;46.736;15.666;2022-09-03T08:59:23;4.85;;;3.05;;
55216;SDS011;41086;46.736;15.666;2022-09-03T09:02:05;9.65;;;4.32;;
55216;SDS011;41086;46.736;15.666;2022-09-03T09:05:04;7.85;;;3.90;;
55216;SDS011;41086;46.736;15.666;2022-09-03T09:10:45;6.32;;;2.92;;
55216;SDS011;41086;46.736;15.666;2022-09-03T09:21:29;6.18;;;3.40;;
55216;SDS011;41086;46.736;15.666;2022-09-03T09:24:01;4.40;;;3.33;;
55216;SDS011;41086;46.736;15.666;2022-09-03T09:26:58;6.78;;;2.78;;
55216;SDS011;41086;46.736;15.666;2022-09-03T09:29:31;4.82;;;3.20;;
55216;SDS011;41086;46.736;15.666;2022-09-03T09:32:00;4.32;;;2.88;;
55216;SDS011;41086;46.736;15.666;2022-09-03T09:34:34;4.15;;;2.78;;
55216;SDS011;41086;46.736;15.666;2022-09-03T09:37:03;8.20;;;3.20;;
55216;SDS011;41086;46.736;15.666;2022-09-03T09:39:33;6.22;;;3.45;;
55216;SDS011;41086;46.736;15.666;2022-09-03T09:42:01;4.15;;;2.92;;
55216;SDS011;41086;46.736;15.666;2022-09-03T09:44:35;3.95;;;2.70;;
55216;SDS011;41086;46.736;15.666;2022-09-03T09:47:05;5.50;;;2.80;;
55216;SDS011;41086;46.736;15.666;2022-09-03T09:52:12;7.03;;;2.50;;
55216;SDS011;41086;46.736;15.666;2022-09-03T09:54:42;3.55;;;2.38;;
55216;SDS011;41086;46.736;15.666;2022-09-03T09:57:15;4.68;;;2.53;;
55216;SDS011;41086;46.736;15.666;2022-09-03T09:59:47;3.65;;;1.80;;
55216;SDS011;41086;46.736;15.666;2022-09-03T10:02:25;4.60;;;2.88;;
55216;SDS011;41086;46.736;15.666;2022-09-03T10:04:55;2.90;;;2.10;;
55216;SDS011;41086;46.736;15.666;2022-09-03T10:07:37;4.68;;;1.98;;
55216;SDS011;41086;46.736;15.666;2022-09-03T10:12:55;4.25;;;2.47;;
55216;SDS011;41086;46.736;15.666;2022-09-03T10:15:38;3.35;;;2.33;;
55216;SDS011;41086;46.736;15.666;2022-09-03T10:24:03;4.95;;;2.15;;
55216;SDS011;41086;46.736;15.666;2022-09-03T10:26:45;4.65;;;2.10;;
55216;SDS011;41086;46.736;15.666;2022-09-03T10:29:22;4.05;;;1.88;;
55216;SDS011;41086;46.736;15.666;2022-09-03T10:40:10;5.85;;;1.77;;
55216;SDS011;41086;46.736;15.666;2022-09-03T10:42:45;4.20;;;1.90;;
55216;SDS011;41086;46.736;15.666;2022-09-03T10:52:22;6.35;;;1.70;;
55216;SDS011;41086;46.736;15.666;2022-09-03T10:57:20;2.95;;;1.40;;
55216;SDS011;41086;46.736;15.666;2022-09-03T11:00:05;2.10;;;1.15;;
55216;SDS011;41086;46.736;15.666;2022-09-03T11:05:40;2.53;;;1.55;;
55216;SDS011;41086;46.736;15.666;2022-09-03T11:08:20;4.40;;;1.55;;
55216;SDS011;41086;46.736;15.666;2022-09-03T11:11:07;3.60;;;1.55;;
55216;SDS011;41086;46.736;15.666;2022-09-03T11:16:20;3.00;;;1.30;;
55216;SDS011;41086;46.736;15.666;2022-09-03T11:19:05;7.57;;;1.60;;
55216;SDS011;41086;46.736;15.666;2022-09-03T11:21:39;2.97;;;1.45;;
55216;SDS011;41086;46.736;15.666;2022-09-03T11:24:10;4.47;;;2.15;;
55216;SDS011;41086;46.736;15.666;2022-09-03T11:29:43;4.78;;;1.38;;
55216;SDS011;41086;46.736;15.666;2022-09-03T11:33:07;2.45;;;1.40;;
55216;SDS011;41086;46.736;15.666;2022-09-03T11:38:00;3.90;;;1.40;;
55216;SDS011;41086;46.736;15.666;2022-09-03T11:43:52;2.88;;;1.35;;
55216;SDS011;41086;46.736;15.666;2022-09-03T11:48:54;4.28;;;1.67;;
55216;SDS011;41086;46.736;15.666;2022-09-03T11:51:38;3.05;;;1.52;;
55216;SDS011;41086;46.736;15.666;2022-09-03T11:56:40;6.18;;;1.67;;
55216;SDS011;41086;46.736;15.666;2022-09-03T11:59:21;3.25;;;1.27;;
55216;SDS011;41086;46.736;15.666;2022-09-03T12:01:51;2.42;;;1.52;;
55216;SDS011;41086;46.736;15.666;2022-09-03T12:04:49;3.92;;;1.50;;
55216;SDS011;41086;46.736;15.666;2022-09-03T12:12:53;3.00;;;1.25;;
55216;SDS011;41086;46.736;15.666;2022-09-03T12:15:45;4.00;;;1.55;;
55216;SDS011;41086;46.736;15.666;2022-09-03T12:18:25;5.30;;;1.87;;
55216;SDS011;41086;46.736;15.666;2022-09-03T12:25:58;2.42;;;1.70;;
55216;SDS011;41086;46.736;15.666;2022-09-03T12:28:34;2.90;;;1.77;;
55216;SDS011;41086;46.736;15.666;2022-09-03T12:31:14;2.40;;;1.73;;
55216;SDS011;41086;46.736;15.666;2022-09-03T12:36:34;2.58;;;1.42;;
55216;SDS011;41086;46.736;15.666;2022-09-03T12:39:15;2.55;;;1.40;;
55216;SDS011;41086;46.736;15.666;2022-09-03T12:42:02;2.10;;;1.50;;
55216;SDS011;41086;46.736;15.666;2022-09-03T12:44:31;3.53;;;1.80;;
55216;SDS011;41086;46.736;15.666;2022-09-03T12:50:03;2.83;;;1.30;;
55216;SDS011;41086;46.736;15.666;2022-09-03T13:01:02;4.05;;;1.90;;
55216;SDS011;41086;46.736;15.666;2022-09-03T13:03:34;3.45;;;1.75;;
55216;SDS011;41086;46.736;15.666;2022-09-03T13:09:31;2.33;;;1.13;;
55216;SDS011;41086;46.736;15.666;2022-09-03T13:12:01;3.05;;;1.50;;
55216;SDS011;41086;46.736;15.666;2022-09-03T13:14:42;5.82;;;1.83;;
55216;SDS011;41086;46.736;15.666;2022-09-03T13:20:07;2.33;;;1.33;;
55216;SDS011;41086;46.736;15.666;2022-09-03T13:33:49;9.30;;;1.83;;
55216;SDS011;41086;46.736;15.666;2022-09-03T13:36:23;3.67;;;1.52;;
55216;SDS011;41086;46.736;15.666;2022-09-03T13:38:58;1.98;;;1.30;;
55216;SDS011;41086;46.736;15.666;2022-09-03T13:44:10;9.93;;;1.40;;
55216;SDS011;41086;46.736;15.666;2022-09-03T13:47:01;8.57;;;1.75;;
55216;SDS011;41086;46.736;15.666;2022-09-03T13:49:37;4.78;;;1.50;;
55216;SDS011;41086;46.736;15.666;2022-09-03T13:58:05;4.75;;;1.88;;
55216;SDS011;41086;46.736;15.666;2022-09-03T14:03:46;5.22;;;1.80;;
55216;SDS011;41086;46.736;15.666;2022-09-03T14:09:14;3.95;;;1.70;;
55216;SDS011;41086;46.736;15.666;2022-09-03T14:12:13;7.88;;;1.63;;
55216;SDS011;41086;46.736;15.666;2022-09-03T14:17:18;4.20;;;1.17;;
55216;SDS011;41086;46.736;15.666;2022-09-03T14:20:01;3.88;;;1.20;;
55216;SDS011;41086;46.736;15.666;2022-09-03T14:25:04;3.55;;;1.67;;
55216;SDS011;41086;46.736;15.666;2022-09-03T14:27:36;4.32;;;1.58;;
55216;SDS011;41086;46.736;15.666;2022-09-03T14:30:05;3.97;;;1.92;;
55216;SDS011;41086;46.736;15.666;2022-09-03T14:36:02;4.53;;;1.50;;
55216;SDS011;41086;46.736;15.666;2022-09-03T14:50:10;1.90;;;1.20;;
55216;SDS011;41086;46.736;15.666;2022-09-03T15:01:09;3.45;;;1.52;;
55216;SDS011;41086;46.736;15.666;2022-09-03T15:11:54;1.85;;;1.13;;
55216;SDS011;41086;46.736;15.666;2022-09-03T15:17:19;3.00;;;1.60;;
55216;SDS011;41086;46.736;15.666;2022-09-03T15:20:25;3.75;;;1.55;;
55216;SDS011;41086;46.736;15.666;2022-09-03T15:26:09;7.20;;;1.80;;
55216;SDS011;41086;46.736;15.666;2022-09-03T15:29:09;4.35;;;1.50;;
55216;SDS011;41086;46.736;15.666;2022-09-03T15:43:09;4.70;;;2.45;;
55216;SDS011;41086;46.736;15.666;2022-09-03T15:53:50;3.15;;;1.63;;
55216;SDS011;41086;46.736;15.666;2022-09-03T15:56:33;3.67;;;1.23;;
55216;SDS011;41086;46.736;15.666;2022-09-03T15:59:18;2.50;;;1.50;;
55216;SDS011;41086;46.736;15.666;2022-09-03T16:12:58;5.75;;;1.75;;
55216;SDS011;41086;46.736;15.666;2022-09-03T16:15:56;1.88;;;1.20;;
55216;SDS011;41086;46.736;15.666;2022-09-03T16:18:36;4.18;;;2.05;;
55216;SDS011;41086;46.736;15.666;2022-09-03T16:21:20;4.70;;;1.73;;
55216;SDS011;41086;46.736;15.666;2022-09-03T16:23:51;4.78;;;1.58;;
55216;SDS011;41086;46.736;15.666;2022-09-03T16:26:31;15.95;;;9.93;;
55216;SDS011;41086;46.736;15.666;2022-09-03T16:29:07;6.32;;;4.32;;
55216;SDS011;41086;46.736;15.666;2022-09-03T16:31:56;6.85;;;1.98;;
55216;SDS011;41086;46.736;15.666;2022-09-03T16:35:00;4.88;;;1.83;;
55216;SDS011;41086;46.736;15.666;2022-09-03T16:43:11;3.65;;;1.58;;
55216;SDS011;41086;46.736;15.666;2022-09-03T16:48:50;4.95;;;1.88;;
55216;SDS011;41086;46.736;15.666;2022-09-03T16:51:36;2.45;;;1.63;;
55216;SDS011;41086;46.736;15.666;2022-09-03T16:57:39;2.55;;;1.60;;
55216;SDS011;41086;46.736;15.666;2022-09-03T17:06:12;3.30;;;1.30;;
55216;SDS011;41086;46.736;15.666;2022-09-03T17:20:20;2.70;;;1.50;;
55216;SDS011;41086;46.736;15.666;2022-09-03T17:25:34;3.97;;;1.58;;
55216;SDS011;41086;46.736;15.666;2022-09-03T17:36:21;3.38;;;2.05;;
55216;SDS011;41086;46.736;15.666;2022-09-03T17:41:59;4.60;;;1.83;;
55216;SDS011;41086;46.736;15.666;2022-09-03T17:47:31;3.80;;;1.65;;
55216;SDS011;41086;46.736;15.666;2022-09-03T17:52:40;3.13;;;2.00;;
55216;SDS011;41086;46.736;15.666;2022-09-03T17:57:49;6.93;;;2.17;;
55216;SDS011;41086;46.736;15.666;2022-09-03T18:01:22;7.38;;;3.00;;
55216;SDS011;41086;46.736;15.666;2022-09-03T18:09:32;3.10;;;2.10;;
55216;SDS011;41086;46.736;15.666;2022-09-03T18:12:07;2.65;;;1.75;;
55216;SDS011;41086;46.736;15.666;2022-09-03T18:17:24;3.13;;;1.85;;
55216;SDS011;41086;46.736;15.666;2022-09-03T18:20:02;4.18;;;2.20;;
55216;SDS011;41086;46.736;15.666;2022-09-03T18:23:08;6.50;;;2.25;;
55216;SDS011;41086;46.736;15.666;2022-09-03T18:26:05;2.50;;;1.67;;
55216;SDS011;41086;46.736;15.666;2022-09-03T18:31:47;3.95;;;2.10;;
55216;SDS011;41086;46.736;15.666;2022-09-03T18:34:34;2.75;;;1.88;;
55216;SDS011;41086;46.736;15.666;2022-09-03T18:37:23;5.95;;;2.10;;
55216;SDS011;41086;46.736;15.666;2022-09-03T18:40:11;5.28;;;1.80;;
55216;SDS011;41086;46.736;15.666;2022-09-03T18:46:17;4.22;;;2.30;;
55216;SDS011;41086;46.736;15.666;2022-09-03T18:49:31;3.30;;;1.90;;
55216;SDS011;41086;46.736;15.666;2022-09-03T19:01:49;3.78;;;2.05;;
55216;SDS011;41086;46.736;15.666;2022-09-03T19:13:49;4.97;;;2.90;;
55216;SDS011;41086;46.736;15.666;2022-09-03T19:23:01;6.32;;;2.22;;
55216;SDS011;41086;46.736;15.666;2022-09-03T19:25:48;7.28;;;1.95;;
55216;SDS011;41086;46.736;15.666;2022-09-03T19:28:38;2.63;;;2.25;;
55216;SDS011;41086;46.736;15.666;2022-09-03T19:31:40;2.85;;;2.15;;
55216;SDS011;41086;46.736;15.666;2022-09-03T19:37:36;4.20;;;2.47;;
55216;SDS011;41086;46.736;15.666;2022-09-03T19:40:48;3.50;;;2.38;;
55216;SDS011;41086;46.736;15.666;2022-09-03T19:46:58;7.47;;;2.85;;
55216;SDS011;41086;46.736;15.666;2022-09-03T19:50:02;4.47;;;3.00;;
55216;SDS011;41086;46.736;15.666;2022-09-03T19:52:56;5.13;;;2.85;;
55216;SDS011;41086;46.736;15.666;2022-09-03T19:55:46;6.95;;;3.00;;
55216;SDS011;41086;46.736;15.666;2022-09-03T19:58:37;5.20;;;3.00;;
55216;SDS011;41086;46.736;15.666;2022-09-03T20:01:32;5.35;;;2.65;;
55216;SDS011;41086;46.736;15.666;2022-09-03T20:04:30;3.78;;;2.30;;
55216;SDS011;41086;46.736;15.666;2022-09-03T20:07:19;5.35;;;2.60;;
55216;SDS011;41086;46.736;15.666;2022-09-03T20:10:10;9.77;;;3.15;;
55216;SDS011;41086;46.736;15.666;2022-09-03T20:34:32;4.00;;;2.95;;
55216;SDS011;41086;46.736;15.666;2022-09-03T20:40:22;5.38;;;2.97;;
55216;SDS011;41086;46.736;15.666;2022-09-03T20:48:37;8.32;;;3.20;;
55216;SDS011;41086;46.736;15.666;2022-09-03T21:05:31;5.13;;;3.17;;
55216;SDS011;41086;46.736;15.666;2022-09-03T21:11:05;6.53;;;3.83;;
55216;SDS011;41086;46.736;15.666;2022-09-03T21:16:36;11.15;;;4.07;;
55216;SDS011;41086;46.736;15.666;2022-09-03T21:24:42;6.43;;;3.35;;
55216;SDS011;41086;46.736;15.666;2022-09-03T21:27:14;7.60;;;4.00;;
55216;SDS011;41086;46.736;15.666;2022-09-03T21:29:56;6.07;;;3.72;;
55216;SDS011;41086;46.736;15.666;2022-09-03T21:37:54;7.38;;;4.00;;
55216;SDS011;41086;46.736;15.666;2022-09-03T21:40:25;7.28;;;4.45;;
55216;SDS011;41086;46.736;15.666;2022-09-03T21:43:03;6.80;;;4.55;;
55216;SDS011;41086;46.736;15.666;2022-09-03T21:46:02;8.18;;;4.18;;
55216;SDS011;41086;46.736;15.666;2022-09-03T21:51:21;6.82;;;4.90;;
55216;SDS011;41086;46.736;15.666;2022-09-03T21:54:03;6.10;;;3.83;;
55216;SDS011;41086;46.736;15.666;2022-09-03T22:02:00;6.55;;;3.78;;
55216;SDS011;41086;46.736;15.666;2022-09-03T22:04:49;8.32;;;4.80;;
55216;SDS011;41086;46.736;15.666;2022-09-03T22:15:35;8.38;;;5.32;;
55216;SDS011;41086;46.736;15.666;2022-09-03T22:21:11;6.97;;;5.03;;
55216;SDS011;41086;46.736;15.666;2022-09-03T22:52:43;7.78;;;5.18;;
55216;SDS011;41086;46.736;15.666;2022-09-03T22:55:13;12.93;;;6.30;;